sensor_id;sensor_type;location;lat;lon;timestamp;P1;durP1;ratioP1;P2;durP2;ratioP2
64873;SDS011;51367;45.204;38.576;2023-08-06T00:00:21;3.83;;;2.90;;
64873;SDS011;51367;45.204;38.576;2023-08-06T00:02:48;4.97;;;2.63;;
64873;SDS011;51367;45.204;38.576;2023-08-06T00:05:14;5.15;;;3.00;;
64873;SDS011;51367;45.204;38.576;2023-08-06T00:07:46;3.15;;;2.47;;
64873;SDS011;51367;45.204;38.576;2023-08-06T00:10:13;4.90;;;2.25;;
64873;SDS011;51367;45.204;38.576;2023-08-06T00:12:39;4.90;;;2.60;;
64873;SDS011;51367;45.204;38.576;2023-08-06T00:15:05;3.50;;;2.65;;
64873;SDS011;51367;45.204;38.576;2023-08-06T00:17:32;16.25;;;2.90;;
64873;SDS011;51367;45.204;38.576;2023-08-06T00:19:58;4.78;;;2.53;;
64873;SDS011;51367;45.204;38.576;2023-08-06T00:22:33;15.02;;;2.60;;
64873;SDS011;51367;45.204;38.576;2023-08-06T00:24:59;3.78;;;2.38;;
64873;SDS011;51367;45.204;38.576;2023-08-06T00:27:25;2.50;;;2.30;;
64873;SDS011;51367;45.204;38.576;2023-08-06T00:29:51;3.70;;;2.83;;
64873;SDS011;51367;45.204;38.576;2023-08-06T00:32:18;4.20;;;2.33;;
64873;SDS011;51367;45.204;38.576;2023-08-06T00:34:44;4.47;;;2.38;;
64873;SDS011;51367;45.204;38.576;2023-08-06T00:37:10;2.55;;;2.33;;
64873;SDS011;51367;45.204;38.576;2023-08-06T00:39:36;4.53;;;2.53;;
64873;SDS011;51367;45.204;38.576;2023-08-06T00:42:02;2.35;;;2.15;;
64873;SDS011;51367;45.204;38.576;2023-08-06T00:44:29;3.70;;;2.75;;
64873;SDS011;51367;45.204;38.576;2023-08-06T00:46:55;3.17;;;2.55;;
64873;SDS011;51367;45.204;38.576;2023-08-06T00:49:21;3.22;;;2.60;;
64873;SDS011;51367;45.204;38.576;2023-08-06T00:51:48;6.57;;;2.80;;
64873;SDS011;51367;45.204;38.576;2023-08-06T00:54:15;4.25;;;2.53;;
64873;SDS011;51367;45.204;38.576;2023-08-06T00:56:41;3.40;;;2.45;;
64873;SDS011;51367;45.204;38.576;2023-08-06T00:59:08;3.40;;;2.90;;
64873;SDS011;51367;45.204;38.576;2023-08-06T01:01:36;1.80;;;1.70;;
64873;SDS011;51367;45.204;38.576;2023-08-06T01:04:02;2.30;;;2.13;;
64873;SDS011;51367;45.204;38.576;2023-08-06T01:09:48;2.80;;;2.47;;
64873;SDS011;51367;45.204;38.576;2023-08-06T01:12:38;2.92;;;2.25;;
64873;SDS011;51367;45.204;38.576;2023-08-06T01:15:12;7.20;;;2.88;;
64873;SDS011;51367;45.204;38.576;2023-08-06T01:17:40;3.58;;;2.22;;
64873;SDS011;51367;45.204;38.576;2023-08-06T01:20:06;3.05;;;2.10;;
64873;SDS011;51367;45.204;38.576;2023-08-06T01:22:32;6.03;;;2.38;;
64873;SDS011;51367;45.204;38.576;2023-08-06T01:24:58;4.57;;;2.72;;
64873;SDS011;51367;45.204;38.576;2023-08-06T01:30:21;2.95;;;2.10;;
64873;SDS011;51367;45.204;38.576;2023-08-06T01:32:56;7.72;;;2.60;;
64873;SDS011;51367;45.204;38.576;2023-08-06T01:35:29;2.13;;;1.90;;
64873;SDS011;51367;45.204;38.576;2023-08-06T01:37:58;4.05;;;2.50;;
64873;SDS011;51367;45.204;38.576;2023-08-06T01:40:25;21.25;;;2.63;;
64873;SDS011;51367;45.204;38.576;2023-08-06T01:42:53;2.25;;;2.10;;
64873;SDS011;51367;45.204;38.576;2023-08-06T01:45:19;2.30;;;2.05;;
64873;SDS011;51367;45.204;38.576;2023-08-06T01:47:45;2.17;;;2.00;;
64873;SDS011;51367;45.204;38.576;2023-08-06T01:50:11;2.65;;;2.10;;
64873;SDS011;51367;45.204;38.576;2023-08-06T01:52:37;5.38;;;2.35;;
64873;SDS011;51367;45.204;38.576;2023-08-06T01:55:04;2.40;;;2.20;;
64873;SDS011;51367;45.204;38.576;2023-08-06T01:57:30;6.80;;;2.50;;
64873;SDS011;51367;45.204;38.576;2023-08-06T01:59:57;19.35;;;2.70;;
64873;SDS011;51367;45.204;38.576;2023-08-06T02:02:23;3.22;;;2.15;;
64873;SDS011;51367;45.204;38.576;2023-08-06T02:04:49;6.85;;;2.95;;
64873;SDS011;51367;45.204;38.576;2023-08-06T02:07:15;4.70;;;2.00;;
64873;SDS011;51367;45.204;38.576;2023-08-06T02:09:41;6.15;;;2.47;;
64873;SDS011;51367;45.204;38.576;2023-08-06T02:12:07;2.47;;;2.22;;
64873;SDS011;51367;45.204;38.576;2023-08-06T02:14:34;4.00;;;2.40;;
64873;SDS011;51367;45.204;38.576;2023-08-06T02:17:00;2.38;;;2.20;;
64873;SDS011;51367;45.204;38.576;2023-08-06T02:19:26;4.20;;;3.17;;
64873;SDS011;51367;45.204;38.576;2023-08-06T02:21:52;2.13;;;1.90;;
64873;SDS011;51367;45.204;38.576;2023-08-06T02:24:18;3.05;;;2.67;;
64873;SDS011;51367;45.204;38.576;2023-08-06T02:26:44;4.43;;;2.38;;
64873;SDS011;51367;45.204;38.576;2023-08-06T02:29:11;4.68;;;2.58;;
64873;SDS011;51367;45.204;38.576;2023-08-06T02:31:37;6.90;;;2.65;;
64873;SDS011;51367;45.204;38.576;2023-08-06T02:34:05;3.00;;;2.25;;
64873;SDS011;51367;45.204;38.576;2023-08-06T02:36:31;5.63;;;3.20;;
64873;SDS011;51367;45.204;38.576;2023-08-06T02:38:58;7.93;;;2.35;;
64873;SDS011;51367;45.204;38.576;2023-08-06T02:41:24;5.78;;;3.00;;
64873;SDS011;51367;45.204;38.576;2023-08-06T02:43:50;2.25;;;2.05;;
64873;SDS011;51367;45.204;38.576;2023-08-06T02:46:17;5.32;;;2.63;;
64873;SDS011;51367;45.204;38.576;2023-08-06T02:48:43;3.70;;;2.42;;
64873;SDS011;51367;45.204;38.576;2023-08-06T02:51:11;3.55;;;2.53;;
64873;SDS011;51367;45.204;38.576;2023-08-06T02:53:37;4.65;;;2.90;;
64873;SDS011;51367;45.204;38.576;2023-08-06T02:56:07;3.72;;;2.38;;
64873;SDS011;51367;45.204;38.576;2023-08-06T02:58:48;12.25;;;2.97;;
64873;SDS011;51367;45.204;38.576;2023-08-06T03:01:25;2.70;;;2.42;;
64873;SDS011;51367;45.204;38.576;2023-08-06T03:03:57;3.25;;;2.20;;
64873;SDS011;51367;45.204;38.576;2023-08-06T03:06:29;3.10;;;2.38;;
64873;SDS011;51367;45.204;38.576;2023-08-06T03:08:57;2.58;;;2.08;;
64873;SDS011;51367;45.204;38.576;2023-08-06T03:11:24;5.07;;;3.28;;
64873;SDS011;51367;45.204;38.576;2023-08-06T03:13:55;5.25;;;2.63;;
64873;SDS011;51367;45.204;38.576;2023-08-06T03:16:21;3.97;;;2.72;;
64873;SDS011;51367;45.204;38.576;2023-08-06T03:18:47;3.05;;;2.10;;
64873;SDS011;51367;45.204;38.576;2023-08-06T03:21:13;15.13;;;2.47;;
64873;SDS011;51367;45.204;38.576;2023-08-06T03:23:39;5.43;;;2.75;;
64873;SDS011;51367;45.204;38.576;2023-08-06T03:26:06;4.05;;;3.63;;
64873;SDS011;51367;45.204;38.576;2023-08-06T03:28:32;3.47;;;2.53;;
64873;SDS011;51367;45.204;38.576;2023-08-06T03:31:00;9.45;;;2.75;;
64873;SDS011;51367;45.204;38.576;2023-08-06T03:33:31;9.02;;;2.95;;
64873;SDS011;51367;45.204;38.576;2023-08-06T03:35:59;3.47;;;2.90;;
64873;SDS011;51367;45.204;38.576;2023-08-06T03:38:25;2.55;;;2.13;;
64873;SDS011;51367;45.204;38.576;2023-08-06T03:40:54;3.35;;;3.05;;
64873;SDS011;51367;45.204;38.576;2023-08-06T03:43:20;16.80;;;9.75;;
64873;SDS011;51367;45.204;38.576;2023-08-06T03:45:46;18.92;;;7.25;;
64873;SDS011;51367;45.204;38.576;2023-08-06T03:48:12;11.10;;;7.15;;
64873;SDS011;51367;45.204;38.576;2023-08-06T03:50:39;16.25;;;9.82;;
64873;SDS011;51367;45.204;38.576;2023-08-06T03:53:10;10.52;;;5.30;;
64873;SDS011;51367;45.204;38.576;2023-08-06T03:55:37;4.43;;;3.17;;
64873;SDS011;51367;45.204;38.576;2023-08-06T03:58:03;6.18;;;3.22;;
64873;SDS011;51367;45.204;38.576;2023-08-06T04:00:29;3.72;;;2.70;;
64873;SDS011;51367;45.204;38.576;2023-08-06T04:02:56;5.07;;;2.80;;
64873;SDS011;51367;45.204;38.576;2023-08-06T04:05:22;5.18;;;2.67;;
64873;SDS011;51367;45.204;38.576;2023-08-06T04:07:48;9.70;;;3.22;;
64873;SDS011;51367;45.204;38.576;2023-08-06T04:10:14;4.03;;;2.70;;
64873;SDS011;51367;45.204;38.576;2023-08-06T04:12:40;5.10;;;3.65;;
64873;SDS011;51367;45.204;38.576;2023-08-06T04:15:06;2.65;;;2.45;;
64873;SDS011;51367;45.204;38.576;2023-08-06T04:17:32;5.18;;;2.70;;
64873;SDS011;51367;45.204;38.576;2023-08-06T04:19:58;5.88;;;3.03;;
64873;SDS011;51367;45.204;38.576;2023-08-06T04:22:25;3.45;;;2.55;;
64873;SDS011;51367;45.204;38.576;2023-08-06T04:24:51;7.97;;;2.38;;
64873;SDS011;51367;45.204;38.576;2023-08-06T04:27:17;2.75;;;2.50;;
64873;SDS011;51367;45.204;38.576;2023-08-06T04:29:45;4.97;;;3.03;;
64873;SDS011;51367;45.204;38.576;2023-08-06T04:32:13;2.42;;;2.22;;
64873;SDS011;51367;45.204;38.576;2023-08-06T04:34:44;3.35;;;2.42;;
64873;SDS011;51367;45.204;38.576;2023-08-06T04:37:10;3.88;;;3.10;;
64873;SDS011;51367;45.204;38.576;2023-08-06T04:39:37;6.00;;;3.22;;
64873;SDS011;51367;45.204;38.576;2023-08-06T04:42:03;10.27;;;2.83;;
64873;SDS011;51367;45.204;38.576;2023-08-06T04:44:30;4.13;;;2.83;;
64873;SDS011;51367;45.204;38.576;2023-08-06T04:46:56;6.47;;;2.80;;
64873;SDS011;51367;45.204;38.576;2023-08-06T04:49:22;3.08;;;2.58;;
64873;SDS011;51367;45.204;38.576;2023-08-06T04:51:49;4.47;;;2.88;;
64873;SDS011;51367;45.204;38.576;2023-08-06T04:54:15;2.70;;;2.50;;
64873;SDS011;51367;45.204;38.576;2023-08-06T04:56:41;3.90;;;2.75;;
64873;SDS011;51367;45.204;38.576;2023-08-06T04:59:07;9.02;;;2.78;;
64873;SDS011;51367;45.204;38.576;2023-08-06T05:01:33;5.50;;;2.85;;
64873;SDS011;51367;45.204;38.576;2023-08-06T05:03:59;12.77;;;2.92;;
64873;SDS011;51367;45.204;38.576;2023-08-06T05:06:25;5.57;;;2.38;;
64873;SDS011;51367;45.204;38.576;2023-08-06T05:08:51;2.90;;;2.65;;
64873;SDS011;51367;45.204;38.576;2023-08-06T05:11:17;5.40;;;2.72;;
64873;SDS011;51367;45.204;38.576;2023-08-06T05:13:43;6.65;;;2.80;;
64873;SDS011;51367;45.204;38.576;2023-08-06T05:16:09;10.52;;;2.38;;
64873;SDS011;51367;45.204;38.576;2023-08-06T05:18:35;2.55;;;2.35;;
64873;SDS011;51367;45.204;38.576;2023-08-06T05:21:03;6.53;;;2.95;;
64873;SDS011;51367;45.204;38.576;2023-08-06T05:23:29;2.22;;;2.03;;
64873;SDS011;51367;45.204;38.576;2023-08-06T05:25:55;6.03;;;2.40;;
64873;SDS011;51367;45.204;38.576;2023-08-06T05:28:21;5.22;;;2.67;;
64873;SDS011;51367;45.204;38.576;2023-08-06T05:30:47;7.45;;;2.63;;
64873;SDS011;51367;45.204;38.576;2023-08-06T05:33:13;4.50;;;2.80;;
64873;SDS011;51367;45.204;38.576;2023-08-06T05:35:40;2.42;;;2.28;;
64873;SDS011;51367;45.204;38.576;2023-08-06T05:38:07;2.97;;;2.65;;
64873;SDS011;51367;45.204;38.576;2023-08-06T05:40:33;2.40;;;2.20;;
64873;SDS011;51367;45.204;38.576;2023-08-06T05:43:00;2.70;;;2.42;;
64873;SDS011;51367;45.204;38.576;2023-08-06T05:45:26;3.47;;;2.53;;
64873;SDS011;51367;45.204;38.576;2023-08-06T05:47:52;6.95;;;2.58;;
64873;SDS011;51367;45.204;38.576;2023-08-06T05:50:19;5.15;;;2.88;;
64873;SDS011;51367;45.204;38.576;2023-08-06T05:52:45;3.40;;;2.30;;
64873;SDS011;51367;45.204;38.576;2023-08-06T05:55:11;3.38;;;2.00;;
64873;SDS011;51367;45.204;38.576;2023-08-06T05:57:37;3.45;;;2.42;;
64873;SDS011;51367;45.204;38.576;2023-08-06T06:00:03;4.18;;;2.38;;
64873;SDS011;51367;45.204;38.576;2023-08-06T06:02:37;2.72;;;2.53;;
64873;SDS011;51367;45.204;38.576;2023-08-06T06:05:03;4.20;;;1.75;;
64873;SDS011;51367;45.204;38.576;2023-08-06T06:07:30;3.92;;;1.80;;
64873;SDS011;51367;45.204;38.576;2023-08-06T06:09:56;4.40;;;2.42;;
64873;SDS011;51367;45.204;38.576;2023-08-06T06:12:22;14.02;;;2.30;;
64873;SDS011;51367;45.204;38.576;2023-08-06T06:14:48;2.17;;;1.90;;
64873;SDS011;51367;45.204;38.576;2023-08-06T06:17:14;5.72;;;2.10;;
64873;SDS011;51367;45.204;38.576;2023-08-06T06:19:40;4.55;;;1.70;;
64873;SDS011;51367;45.204;38.576;2023-08-06T06:22:06;4.28;;;2.10;;
64873;SDS011;51367;45.204;38.576;2023-08-06T06:24:32;2.20;;;2.00;;
64873;SDS011;51367;45.204;38.576;2023-08-06T06:26:58;5.72;;;2.47;;
64873;SDS011;51367;45.204;38.576;2023-08-06T06:29:24;6.25;;;2.60;;
64873;SDS011;51367;45.204;38.576;2023-08-06T06:31:50;3.80;;;2.13;;
64873;SDS011;51367;45.204;38.576;2023-08-06T06:34:16;6.70;;;2.60;;
64873;SDS011;51367;45.204;38.576;2023-08-06T06:36:42;2.85;;;1.67;;
64873;SDS011;51367;45.204;38.576;2023-08-06T06:39:08;4.05;;;2.17;;
64873;SDS011;51367;45.204;38.576;2023-08-06T06:41:34;4.00;;;2.20;;
64873;SDS011;51367;45.204;38.576;2023-08-06T06:44:08;6.70;;;2.03;;
64873;SDS011;51367;45.204;38.576;2023-08-06T06:46:34;2.05;;;1.73;;
64873;SDS011;51367;45.204;38.576;2023-08-06T06:49:00;7.35;;;2.63;;
64873;SDS011;51367;45.204;38.576;2023-08-06T06:51:26;3.25;;;2.08;;
64873;SDS011;51367;45.204;38.576;2023-08-06T06:53:52;8.05;;;2.22;;
64873;SDS011;51367;45.204;38.576;2023-08-06T06:56:18;8.40;;;2.20;;
64873;SDS011;51367;45.204;38.576;2023-08-06T06:58:44;3.28;;;1.70;;
64873;SDS011;51367;45.204;38.576;2023-08-06T07:01:11;4.82;;;2.00;;
64873;SDS011;51367;45.204;38.576;2023-08-06T07:03:37;3.97;;;1.90;;
64873;SDS011;51367;45.204;38.576;2023-08-06T07:06:03;4.47;;;2.00;;
64873;SDS011;51367;45.204;38.576;2023-08-06T07:08:30;2.28;;;1.80;;
64873;SDS011;51367;45.204;38.576;2023-08-06T07:11:02;5.75;;;1.67;;
64873;SDS011;51367;45.204;38.576;2023-08-06T07:13:30;2.75;;;1.70;;
64873;SDS011;51367;45.204;38.576;2023-08-06T07:15:56;2.38;;;1.80;;
64873;SDS011;51367;45.204;38.576;2023-08-06T07:18:23;3.60;;;1.85;;
64873;SDS011;51367;45.204;38.576;2023-08-06T07:20:49;1.75;;;1.65;;
64873;SDS011;51367;45.204;38.576;2023-08-06T07:23:16;2.90;;;1.92;;
64873;SDS011;51367;45.204;38.576;2023-08-06T07:25:43;1.77;;;1.50;;
64873;SDS011;51367;45.204;38.576;2023-08-06T07:28:11;6.22;;;1.83;;
64873;SDS011;51367;45.204;38.576;2023-08-06T07:30:40;1.83;;;1.70;;
64873;SDS011;51367;45.204;38.576;2023-08-06T07:33:07;3.22;;;2.05;;
64873;SDS011;51367;45.204;38.576;2023-08-06T07:35:33;6.10;;;1.58;;
64873;SDS011;51367;45.204;38.576;2023-08-06T07:38:00;5.32;;;1.80;;
64873;SDS011;51367;45.204;38.576;2023-08-06T07:40:26;5.10;;;2.00;;
64873;SDS011;51367;45.204;38.576;2023-08-06T07:42:52;5.45;;;2.08;;
64873;SDS011;51367;45.204;38.576;2023-08-06T07:45:18;4.68;;;1.92;;
64873;SDS011;51367;45.204;38.576;2023-08-06T07:47:45;3.17;;;1.60;;
64873;SDS011;51367;45.204;38.576;2023-08-06T07:50:11;3.78;;;2.13;;
64873;SDS011;51367;45.204;38.576;2023-08-06T07:52:37;2.45;;;1.75;;
64873;SDS011;51367;45.204;38.576;2023-08-06T07:55:04;2.65;;;2.17;;
64873;SDS011;51367;45.204;38.576;2023-08-06T07:57:30;3.10;;;1.52;;
64873;SDS011;51367;45.204;38.576;2023-08-06T07:59:57;2.10;;;1.65;;
64873;SDS011;51367;45.204;38.576;2023-08-06T08:02:23;1.70;;;1.60;;
64873;SDS011;51367;45.204;38.576;2023-08-06T08:04:49;2.20;;;1.50;;
64873;SDS011;51367;45.204;38.576;2023-08-06T08:07:16;6.22;;;1.73;;
64873;SDS011;51367;45.204;38.576;2023-08-06T08:09:42;3.03;;;1.55;;
64873;SDS011;51367;45.204;38.576;2023-08-06T08:12:08;2.88;;;1.83;;
64873;SDS011;51367;45.204;38.576;2023-08-06T08:14:34;4.07;;;1.60;;
64873;SDS011;51367;45.204;38.576;2023-08-06T08:17:01;2.30;;;1.85;;
64873;SDS011;51367;45.204;38.576;2023-08-06T08:19:33;4.15;;;2.40;;
64873;SDS011;51367;45.204;38.576;2023-08-06T08:21:59;2.83;;;2.53;;
64873;SDS011;51367;45.204;38.576;2023-08-06T08:24:25;3.78;;;1.58;;
64873;SDS011;51367;45.204;38.576;2023-08-06T08:26:52;12.63;;;2.05;;
64873;SDS011;51367;45.204;38.576;2023-08-06T08:29:19;2.78;;;1.90;;
64873;SDS011;51367;45.204;38.576;2023-08-06T08:31:45;4.90;;;1.60;;
64873;SDS011;51367;45.204;38.576;2023-08-06T08:34:14;3.97;;;1.45;;
64873;SDS011;51367;45.204;38.576;2023-08-06T08:36:41;2.67;;;1.40;;
64873;SDS011;51367;45.204;38.576;2023-08-06T08:39:07;3.03;;;1.77;;
64873;SDS011;51367;45.204;38.576;2023-08-06T08:41:35;4.70;;;1.48;;
64873;SDS011;51367;45.204;38.576;2023-08-06T08:44:02;6.63;;;2.13;;
64873;SDS011;51367;45.204;38.576;2023-08-06T08:46:30;5.85;;;2.13;;
64873;SDS011;51367;45.204;38.576;2023-08-06T08:48:58;1.60;;;1.50;;
64873;SDS011;51367;45.204;38.576;2023-08-06T08:51:25;12.48;;;2.70;;
64873;SDS011;51367;45.204;38.576;2023-08-06T08:53:53;2.15;;;1.80;;
64873;SDS011;51367;45.204;38.576;2023-08-06T08:56:21;4.03;;;2.00;;
64873;SDS011;51367;45.204;38.576;2023-08-06T08:58:48;2.05;;;1.73;;
64873;SDS011;51367;45.204;38.576;2023-08-06T09:01:14;2.47;;;1.75;;
64873;SDS011;51367;45.204;38.576;2023-08-06T09:03:42;4.70;;;1.95;;
64873;SDS011;51367;45.204;38.576;2023-08-06T09:06:10;2.72;;;1.98;;
64873;SDS011;51367;45.204;38.576;2023-08-06T09:08:44;3.42;;;1.70;;
64873;SDS011;51367;45.204;38.576;2023-08-06T09:11:19;4.25;;;2.08;;
64873;SDS011;51367;45.204;38.576;2023-08-06T09:13:46;5.68;;;2.47;;
64873;SDS011;51367;45.204;38.576;2023-08-06T09:16:13;7.03;;;1.55;;
64873;SDS011;51367;45.204;38.576;2023-08-06T09:18:39;4.90;;;2.15;;
64873;SDS011;51367;45.204;38.576;2023-08-06T09:21:06;5.45;;;1.70;;
64873;SDS011;51367;45.204;38.576;2023-08-06T09:23:40;2.58;;;2.13;;
64873;SDS011;51367;45.204;38.576;2023-08-06T09:26:06;3.88;;;2.22;;
64873;SDS011;51367;45.204;38.576;2023-08-06T09:28:38;3.28;;;1.88;;
64873;SDS011;51367;45.204;38.576;2023-08-06T09:31:05;5.15;;;1.80;;
64873;SDS011;51367;45.204;38.576;2023-08-06T09:33:31;5.45;;;1.95;;
64873;SDS011;51367;45.204;38.576;2023-08-06T09:35:57;7.97;;;2.28;;
64873;SDS011;51367;45.204;38.576;2023-08-06T09:38:23;2.92;;;2.53;;
64873;SDS011;51367;45.204;38.576;2023-08-06T09:40:50;5.38;;;1.90;;
64873;SDS011;51367;45.204;38.576;2023-08-06T09:43:18;2.30;;;2.10;;
64873;SDS011;51367;45.204;38.576;2023-08-06T09:45:44;3.88;;;2.00;;
64873;SDS011;51367;45.204;38.576;2023-08-06T09:48:10;3.75;;;1.88;;
64873;SDS011;51367;45.204;38.576;2023-08-06T09:50:37;6.70;;;2.15;;
64873;SDS011;51367;45.204;38.576;2023-08-06T09:53:05;2.88;;;1.98;;
64873;SDS011;51367;45.204;38.576;2023-08-06T09:55:33;10.15;;;2.05;;
64873;SDS011;51367;45.204;38.576;2023-08-06T09:57:59;7.80;;;1.95;;
64873;SDS011;51367;45.204;38.576;2023-08-06T10:00:26;5.97;;;2.42;;
64873;SDS011;51367;45.204;38.576;2023-08-06T10:02:53;1.52;;;1.38;;
64873;SDS011;51367;45.204;38.576;2023-08-06T10:05:21;4.93;;;1.98;;
64873;SDS011;51367;45.204;38.576;2023-08-06T10:07:49;4.68;;;2.38;;
64873;SDS011;51367;45.204;38.576;2023-08-06T10:10:18;4.57;;;1.67;;
64873;SDS011;51367;45.204;38.576;2023-08-06T10:12:51;1.98;;;1.80;;
64873;SDS011;51367;45.204;38.576;2023-08-06T10:15:26;3.55;;;1.85;;
64873;SDS011;51367;45.204;38.576;2023-08-06T10:17:56;2.33;;;1.63;;
64873;SDS011;51367;45.204;38.576;2023-08-06T10:20:24;3.22;;;1.88;;
64873;SDS011;51367;45.204;38.576;2023-08-06T10:23:03;3.97;;;1.48;;
64873;SDS011;51367;45.204;38.576;2023-08-06T10:25:31;13.45;;;2.38;;
64873;SDS011;51367;45.204;38.576;2023-08-06T10:27:59;2.28;;;1.88;;
64873;SDS011;51367;45.204;38.576;2023-08-06T10:30:32;5.35;;;2.03;;
64873;SDS011;51367;45.204;38.576;2023-08-06T10:33:00;4.80;;;1.55;;
64873;SDS011;51367;45.204;38.576;2023-08-06T10:41:03;8.43;;;2.08;;
64873;SDS011;51367;45.204;38.576;2023-08-06T10:46:00;5.63;;;1.85;;
64873;SDS011;51367;45.204;38.576;2023-08-06T10:51:07;6.78;;;2.13;;
64873;SDS011;51367;45.204;38.576;2023-08-06T10:56:01;2.05;;;1.73;;
64873;SDS011;51367;45.204;38.576;2023-08-06T10:58:37;2.13;;;1.88;;
64873;SDS011;51367;45.204;38.576;2023-08-06T11:01:03;6.25;;;1.88;;
64873;SDS011;51367;45.204;38.576;2023-08-06T11:03:29;5.05;;;3.05;;
64873;SDS011;51367;45.204;38.576;2023-08-06T11:05:55;9.80;;;2.13;;
64873;SDS011;51367;45.204;38.576;2023-08-06T11:08:28;9.52;;;1.73;;
64873;SDS011;51367;45.204;38.576;2023-08-06T11:10:55;9.77;;;1.83;;
64873;SDS011;51367;45.204;38.576;2023-08-06T11:13:32;8.60;;;2.17;;
64873;SDS011;51367;45.204;38.576;2023-08-06T11:15:58;5.88;;;2.20;;
64873;SDS011;51367;45.204;38.576;2023-08-06T11:18:24;3.20;;;1.40;;
64873;SDS011;51367;45.204;38.576;2023-08-06T11:20:50;6.25;;;1.67;;
64873;SDS011;51367;45.204;38.576;2023-08-06T11:23:16;7.22;;;1.83;;
64873;SDS011;51367;45.204;38.576;2023-08-06T11:25:44;9.00;;;2.58;;
64873;SDS011;51367;45.204;38.576;2023-08-06T11:28:11;2.95;;;1.73;;
64873;SDS011;51367;45.204;38.576;2023-08-06T11:30:38;5.30;;;1.88;;
64873;SDS011;51367;45.204;38.576;2023-08-06T11:33:06;2.33;;;1.45;;
64873;SDS011;51367;45.204;38.576;2023-08-06T11:35:35;3.58;;;1.38;;
64873;SDS011;51367;45.204;38.576;2023-08-06T11:38:01;4.35;;;1.83;;
64873;SDS011;51367;45.204;38.576;2023-08-06T11:40:27;4.72;;;1.75;;
64873;SDS011;51367;45.204;38.576;2023-08-06T11:42:53;2.60;;;1.92;;
64873;SDS011;51367;45.204;38.576;2023-08-06T11:45:23;1.58;;;1.48;;
64873;SDS011;51367;45.204;38.576;2023-08-06T11:47:50;3.92;;;1.38;;
64873;SDS011;51367;45.204;38.576;2023-08-06T11:50:24;8.95;;;1.95;;
64873;SDS011;51367;45.204;38.576;2023-08-06T11:52:57;3.40;;;1.42;;
64873;SDS011;51367;45.204;38.576;2023-08-06T11:55:25;3.67;;;1.77;;
64873;SDS011;51367;45.204;38.576;2023-08-06T11:57:53;2.25;;;1.52;;
64873;SDS011;51367;45.204;38.576;2023-08-06T12:00:21;4.40;;;2.35;;
64873;SDS011;51367;45.204;38.576;2023-08-06T12:02:49;4.38;;;1.75;;
64873;SDS011;51367;45.204;38.576;2023-08-06T12:05:20;5.38;;;1.90;;
64873;SDS011;51367;45.204;38.576;2023-08-06T12:07:57;4.63;;;1.90;;
64873;SDS011;51367;45.204;38.576;2023-08-06T12:10:24;5.38;;;1.92;;
64873;SDS011;51367;45.204;38.576;2023-08-06T12:12:53;15.43;;;1.85;;
64873;SDS011;51367;45.204;38.576;2023-08-06T12:15:19;11.82;;;2.17;;
64873;SDS011;51367;45.204;38.576;2023-08-06T12:17:45;5.32;;;1.73;;
64873;SDS011;51367;45.204;38.576;2023-08-06T12:20:11;2.45;;;2.00;;
64873;SDS011;51367;45.204;38.576;2023-08-06T12:22:38;4.47;;;2.05;;
64873;SDS011;51367;45.204;38.576;2023-08-06T12:25:09;2.72;;;1.40;;
64873;SDS011;51367;45.204;38.576;2023-08-06T12:27:38;4.22;;;2.22;;
64873;SDS011;51367;45.204;38.576;2023-08-06T12:30:06;12.98;;;1.65;;
64873;SDS011;51367;45.204;38.576;2023-08-06T12:32:33;6.47;;;1.80;;
64873;SDS011;51367;45.204;38.576;2023-08-06T12:35:00;5.15;;;2.13;;
64873;SDS011;51367;45.204;38.576;2023-08-06T12:37:26;2.75;;;1.40;;
64873;SDS011;51367;45.204;38.576;2023-08-06T12:39:52;6.32;;;2.05;;
64873;SDS011;51367;45.204;38.576;2023-08-06T12:42:18;5.13;;;2.15;;
64873;SDS011;51367;45.204;38.576;2023-08-06T12:44:44;6.30;;;1.67;;
64873;SDS011;51367;45.204;38.576;2023-08-06T12:47:11;5.43;;;1.83;;
64873;SDS011;51367;45.204;38.576;2023-08-06T12:49:37;3.50;;;1.73;;
64873;SDS011;51367;45.204;38.576;2023-08-06T12:52:03;2.78;;;1.40;;
64873;SDS011;51367;45.204;38.576;2023-08-06T12:54:31;3.97;;;1.48;;
64873;SDS011;51367;45.204;38.576;2023-08-06T12:57:02;5.45;;;2.28;;
64873;SDS011;51367;45.204;38.576;2023-08-06T12:59:28;2.97;;;1.77;;
64873;SDS011;51367;45.204;38.576;2023-08-06T13:01:54;5.53;;;2.35;;
64873;SDS011;51367;45.204;38.576;2023-08-06T13:04:20;1.75;;;1.50;;
64873;SDS011;51367;45.204;38.576;2023-08-06T13:06:46;3.95;;;1.50;;
64873;SDS011;51367;45.204;38.576;2023-08-06T13:09:13;4.85;;;1.75;;
64873;SDS011;51367;45.204;38.576;2023-08-06T13:11:39;5.53;;;1.67;;
64873;SDS011;51367;45.204;38.576;2023-08-06T13:16:33;5.72;;;2.10;;
64873;SDS011;51367;45.204;38.576;2023-08-06T13:19:00;2.03;;;1.48;;
64873;SDS011;51367;45.204;38.576;2023-08-06T13:21:31;2.40;;;1.40;;
64873;SDS011;51367;45.204;38.576;2023-08-06T13:24:00;4.90;;;1.70;;
64873;SDS011;51367;45.204;38.576;2023-08-06T13:26:29;4.45;;;2.00;;
64873;SDS011;51367;45.204;38.576;2023-08-06T13:28:59;5.75;;;2.15;;
64873;SDS011;51367;45.204;38.576;2023-08-06T13:31:26;5.28;;;1.90;;
64873;SDS011;51367;45.204;38.576;2023-08-06T13:33:53;2.80;;;1.40;;
64873;SDS011;51367;45.204;38.576;2023-08-06T13:36:21;3.40;;;1.92;;
64873;SDS011;51367;45.204;38.576;2023-08-06T13:38:48;3.80;;;1.70;;
64873;SDS011;51367;45.204;38.576;2023-08-06T13:41:14;1.98;;;1.42;;
64873;SDS011;51367;45.204;38.576;2023-08-06T13:43:41;6.95;;;1.58;;
64873;SDS011;51367;45.204;38.576;2023-08-06T13:46:08;2.58;;;1.40;;
64873;SDS011;51367;45.204;38.576;2023-08-06T13:48:34;4.00;;;1.77;;
64873;SDS011;51367;45.204;38.576;2023-08-06T13:51:00;2.70;;;1.30;;
64873;SDS011;51367;45.204;38.576;2023-08-06T13:53:26;1.50;;;1.40;;
64873;SDS011;51367;45.204;38.576;2023-08-06T13:55:55;2.97;;;1.30;;
64873;SDS011;51367;45.204;38.576;2023-08-06T13:58:22;4.07;;;1.58;;
64873;SDS011;51367;45.204;38.576;2023-08-06T14:00:49;2.85;;;1.63;;
64873;SDS011;51367;45.204;38.576;2023-08-06T14:03:18;2.92;;;1.40;;
64873;SDS011;51367;45.204;38.576;2023-08-06T14:05:44;5.90;;;1.48;;
64873;SDS011;51367;45.204;38.576;2023-08-06T14:08:10;3.53;;;1.80;;
64873;SDS011;51367;45.204;38.576;2023-08-06T14:10:37;2.67;;;1.67;;
64873;SDS011;51367;45.204;38.576;2023-08-06T14:13:02;3.28;;;1.63;;
64873;SDS011;51367;45.204;38.576;2023-08-06T14:15:28;2.90;;;1.70;;
64873;SDS011;51367;45.204;38.576;2023-08-06T14:17:55;4.40;;;2.33;;
64873;SDS011;51367;45.204;38.576;2023-08-06T14:20:20;3.05;;;1.50;;
64873;SDS011;51367;45.204;38.576;2023-08-06T14:22:46;1.90;;;1.70;;
64873;SDS011;51367;45.204;38.576;2023-08-06T14:25:12;3.28;;;2.17;;
64873;SDS011;51367;45.204;38.576;2023-08-06T14:27:38;3.45;;;1.70;;
64873;SDS011;51367;45.204;38.576;2023-08-06T14:30:05;1.70;;;1.60;;
64873;SDS011;51367;45.204;38.576;2023-08-06T14:32:32;2.75;;;1.50;;
64873;SDS011;51367;45.204;38.576;2023-08-06T14:34:58;1.50;;;1.40;;
64873;SDS011;51367;45.204;38.576;2023-08-06T14:37:25;5.35;;;1.45;;
64873;SDS011;51367;45.204;38.576;2023-08-06T14:39:51;3.90;;;1.38;;
64873;SDS011;51367;45.204;38.576;2023-08-06T14:42:17;5.38;;;1.50;;
64873;SDS011;51367;45.204;38.576;2023-08-06T14:44:43;1.75;;;1.50;;
64873;SDS011;51367;45.204;38.576;2023-08-06T14:47:09;1.40;;;1.17;;
64873;SDS011;51367;45.204;38.576;2023-08-06T14:49:35;1.33;;;1.23;;
64873;SDS011;51367;45.204;38.576;2023-08-06T14:52:03;3.00;;;1.45;;
64873;SDS011;51367;45.204;38.576;2023-08-06T14:54:29;2.72;;;1.35;;